• Join FlightAware (Why Join?)
  • Login
  • US Flag 
06:49AM EDT


 

Airport Tracker/Info


-or-


 

Live Flight TrackerFlight Track Log ✈ EJA396 ✈ 29-Sep-2013 ✈ 0A9 - KBED

Flight Track Log - Related Links

Times and Time Zones

All times are in EDT time to prevent confusion due to time zone crossing. See the EJA396 flight status page for this flight to view local times or setup timezone preferences in your user account.

Time Position Orientation Groundspeed Altitude Reporting Facility
EDT Latitude Longitude Course Direction KTS MPH feet Rate Location/Type
06:41PM 36.4328 -82.0956 44° Northeast 188 216 7,600  Level Atlanta Center
06:42PM 36.4944 -82.0269 42° Northeast 262 302 9,900 1,740 Climbing Atlanta Center
06:43PM 36.5658 -81.9425 44° Northeast 327 376 11,100 2,400 Climbing Atlanta Center
06:44PM 36.6394 -81.8578 43° Northeast 353 406 14,800 3,540 Climbing Atlanta Center
06:45PM 36.7131 -81.7728 43° Northeast 359 413 18,200 2,880 Climbing Atlanta Center
06:46PM 36.7883 -81.6800 45° Northeast 359 413 20,600 2,700 Climbing Atlanta Center
06:47PM 36.8681 -81.5894 42° Northeast 370 426 23,600 2,820 Climbing Atlanta Center
06:48PM 36.9067 -81.5442 43° Northeast 385 443 24,900 900 Climbing Indianapolis Center
06:49PM 36.9931 -81.4406 44° Northeast 431 496 25,000 780 Climbing Indianapolis Center
06:50PM 37.0897 -81.3256 43° Northeast 418 481 26,600 960 Climbing Indianapolis Center
06:51PM 37.1747 -81.2250 43° Northeast 418 481 27,000 180 Climbing Indianapolis Center
06:52PM 37.2608 -81.1228 43° Northeast 435 501 27,000 540 Level Indianapolis Center
06:53PM 37.3486 -81.0200 43° Northeast 441 507 28,200 1,680 Climbing Indianapolis Center
06:54PM 37.4278 -80.8767 55° Northeast 452 520 30,600 1,320 Climbing Indianapolis Center
06:55PM 37.4400 -80.7186 84° East 468 539 31,000 600 Climbing Indianapolis Center
06:56PM 37.4769 -80.5578 74° East 489 563 31,900 1,080 Climbing Indianapolis Center
06:57PM 37.5228 -80.3656 73° East 492 566 33,300 1,740 Climbing Indianapolis Center
06:58PM 37.5592 -80.2089 74° East 481 554 35,500 2,040 Climbing Indianapolis Center
06:59PM 37.5936 -80.0603 74° East 461 531 37,600 1,680 Climbing Indianapolis Center
07:00PM 37.6328 -79.8872 74° East 439 505 39,000 660 Climbing Indianapolis Center
07:01PM 37.6653 -79.7528 73° East 455 524 39,000  Level Washington Center
07:02PM 37.7022 -79.5842 74° East 455 524 39,000  Level Washington Center
07:03PM 37.7428 -79.4314 71° East 447 514 39,000 120 Level Washington Center
07:04PM 37.7747 -79.2753 75° East 452 520 39,300 600 Climbing Washington Center
07:05PM 37.8086 -79.1219 74° East 452 520 40,300 840 Climbing Washington Center
07:06PM 37.8397 -78.9839 74° East 447 514 41,000 300 Climbing Washington Center
07:07PM 37.8708 -78.8328 75° East 447 514 41,000  Level Washington Center
07:08PM 37.9042 -78.6761 75° East 452 520 41,000  Level Washington Center
07:09PM 37.9394 -78.5222 74° East 452 520 41,000  Level Washington Center
07:10PM 37.9747 -78.3525 75° East 452 520 41,000  Level Washington Center
07:11PM 38.0094 -78.1983 74° East 452 520 41,000  Level Washington Center
07:12PM 38.0536 -78.0758 65° Northeast 441 507 41,000  Level Washington Center
07:13PM 38.1169 -77.9433 59° Northeast 430 495 41,000  Level Washington Center
07:14PM 38.1839 -77.8133 57° Northeast 430 495 41,000  Level Washington Center
07:15PM 38.2489 -77.6831 58° Northeast 430 495 41,000  Level Washington Center
07:16PM 38.3136 -77.5500 58° Northeast 430 495 41,000  Level Washington Center
07:17PM 38.3761 -77.4164 59° Northeast 430 495 41,000  Level Washington Center
07:18PM 38.4408 -77.2856 58° Northeast 430 495 41,000  Level Washington Center
07:19PM 38.5050 -77.1569 57° Northeast 425 489 41,000  Level Washington Center
07:20PM 38.5692 -77.0228 59° Northeast 425 489 41,000  Level Washington Center
07:21PM 38.6311 -76.8939 58° Northeast 425 489 41,000  Level Washington Center
07:22PM 38.6950 -76.7672 57° Northeast 425 489 41,000  Level Washington Center
07:23PM 38.7547 -76.6300 61° Northeast 425 489 41,000  Level Washington Center
07:24PM 38.8119 -76.4975 61° Northeast 425 489 41,000  Level Washington Center
07:25PM 38.8714 -76.3622 61° Northeast 425 489 41,000  Level Washington Center
07:26PM 38.9261 -76.2294 62° Northeast 425 489 41,000  Level Washington Center
07:27PM 39.0081 -76.1206 46° Northeast 419 482 41,000  Level Washington Center
07:28PM 39.0897 -76.0114 46° Northeast 419 482 41,000  Level Washington Center
07:29PM 39.1733 -75.9047 45° Northeast 414 476 41,000  Level Washington Center
07:30PM 39.2569 -75.8006 44° Northeast 414 476 41,000  Level Washington Center
07:31PM 39.3383 -75.6936 45° Northeast 409 471 41,000  Level Washington Center
07:32PM 39.4219 -75.5836 45° Northeast 409 471 41,000  Level Washington Center
07:33PM 39.5050 -75.4786 44° Northeast 409 471 41,000  Level Washington Center
07:34PM 39.5883 -75.3681 46° Northeast 409 471 41,000  Level Washington Center
07:35PM 39.6694 -75.2600 46° Northeast 409 471 41,000 -420 Level Washington Center
07:37PM 39.7686 -75.1164 48° Northeast 436 502 40,100 -1,020 Descending New York Center
07:38PM 39.8414 -75.0100 48° Northeast 423 487 38,900 -1,200 Descending New York Center
07:39PM 39.9139 -74.9089 47° Northeast 394 453 37,700 -1,200 Descending New York Center
07:40PM 39.9794 -74.8233 45° Northeast 370 426 36,600 -1,200 Descending New York Center
07:41PM 40.0475 -74.7217 49° Northeast 370 426 35,400 -1,200 Descending New York Center
07:42PM 40.1117 -74.6058 54° Northeast 375 432 34,200 -1,200 Descending New York Center
07:43PM 40.1739 -74.4817 57° Northeast 388 447 33,000 -1,200 Descending New York Center
07:44PM 40.2406 -74.3547 55° Northeast 408 470 31,800 -1,200 Descending New York Center
07:46PM 40.3864 -74.0794 55° Northeast 439 505 29,200 -1,320 Descending Boston Center
07:47PM 40.4597 -73.9469 54° Northeast 432 497 27,700 -1,380 Descending Boston Center
07:48PM 40.5269 -73.8214 55° Northeast 425 489 26,400 -1,440 Descending Boston Center
07:49PM 40.6011 -73.6761 56° Northeast 417 480 24,900 -1,380 Descending Boston Center
07:50PM 40.6633 -73.5556 56° Northeast 404 465 23,600 -1,260 Descending Boston Center
07:51PM 40.7247 -73.4378 55° Northeast 393 452 22,400 -1,140 Descending Boston Center
07:52PM 40.7806 -73.3278 56° Northeast 392 451 21,300 -720 Descending Boston Center
07:53PM 40.8578 -73.2319 43° Northeast 384 442 21,000 -480 Descending Boston Center
07:54PM 40.9583 -73.1144 41° Northeast 400 460 20,400 -1,020 Descending Boston Center
07:55PM 41.0375 -73.0200 42° Northeast 390 449 19,000 -1,320 Descending Boston Center
07:56PM 41.1136 -72.9303 42° Northeast 382 440 17,800 -1,080 Descending Boston Center
07:57PM 41.1931 -72.8367 42° Northeast 379 436 16,800 -1,140 Descending Boston Center
07:58PM 41.2783 -72.7353 42° Northeast 381 438 15,500 -900 Descending Boston Center
07:59PM 41.3783 -72.6664 27° Northeast 384 442 15,100 -240 Descending Boston Center
08:00PM 41.4761 -72.6211 19° North 373 429 15,100 -120 Level Boston Center
08:01PM 41.5700 -72.5803 18° North 358 412 14,900 -780 Descending Boston Center
08:02PM 41.6353 -72.5483 20° North 367 422 13,800 -1,620 Descending Boston Center
08:02PM 41.6628 -72.5244 33° Northeast 376 433 13,300 -1,680 Descending Boston Center
08:02PM 41.6839 -72.4994 41° Northeast 366 421 12,800 -1,620 Descending Boston Center
08:03PM 41.7447 -72.4339 39° Northeast 357 411 11,600 -1,680 Descending Boston Center
08:03PM 41.7550 -72.4239 36° Northeast 349 402 11,300 -1,440 Descending Boston Center
08:04PM 41.8278 -72.3400 41° Northeast 343 395 10,000 -720 Descending Boston Center
08:05PM 41.8900 -72.2725 39° Northeast 341 392 10,000  Level Boston Center
08:05PM 41.9017 -72.2594 40° Northeast 340 391 10,000  Level Boston Center
08:06PM 41.9658 -72.1853 41° Northeast 335 386 10,000  Level Boston Center
08:06PM 41.9711 -72.1800 37° Northeast 336 387 10,000 -1,200 Level Boston Center
08:07PM 42.0253 -72.1186 40° Northeast 274 315 8,800 -1,320 Descending Boston Center
08:07PM 42.0261 -72.1183 14° North 261 300 8,800 -1,140 Level Boston Center
08:08PM 42.0875 -72.0472 41° Northeast 317 365 7,600 -1,080 Descending Boston Center
08:09PM 42.1519 -71.9758 39° Northeast 282 325 6,700 -960 Descending Boston Center
08:10PM 42.2125 -71.9100 39° Northeast 282 325 5,700 -840 Descending Boston Center
08:11PM 42.2706 -71.8453 40° Northeast 273 314 5,000 -360 Descending Boston Center
08:12PM 42.3244 -71.7842 40° Northeast 257 296 5,000 -60 Level Boston Center
08:13PM 42.3808 -71.7125 43° Northeast 271 312 4,900 -960 Descending Boston Center
08:14PM 42.4253 -71.6244 56° Northeast 265 305 3,100 -1,260 Descending Boston Center
08:15PM 42.4500 -71.5833 51° Northeast 230 265 3,000 -120 Descending KA90
08:16PM 42.4667 -71.5167 71° East 199 229 3,000 -300 Level KA90
08:17PM 42.4833 -71.4500 71° East 170 196 2,500 -720 Descending KA90
08:18PM 42.4833 -71.3833 90° East 184 212 1,600 -840 Descending KA90
08:19PM 42.4833 -71.3333 90° East 102 117 800 -780 Descending KA90
08:22PM 42.4667 -71.2833 270° West  Level FlightAware Approximate